sensor_id;sensor_type;location;lat;lon;timestamp;P1;durP1;ratioP1;P2;durP2;ratioP2
65477;SDS011;53678;39.642;22.430;2022-08-06T00:02:00;8.43;;;4.40;;
65477;SDS011;53678;39.642;22.430;2022-08-06T00:04:26;7.90;;;3.80;;
65477;SDS011;53678;39.642;22.430;2022-08-06T00:06:51;6.65;;;3.53;;
65477;SDS011;53678;39.642;22.430;2022-08-06T00:09:17;6.68;;;3.25;;
65477;SDS011;53678;39.642;22.430;2022-08-06T00:11:43;7.57;;;3.92;;
65477;SDS011;53678;39.642;22.430;2022-08-06T00:14:09;9.07;;;3.78;;
65477;SDS011;53678;39.642;22.430;2022-08-06T00:16:35;10.13;;;4.10;;
65477;SDS011;53678;39.642;22.430;2022-08-06T00:19:02;9.68;;;3.90;;
65477;SDS011;53678;39.642;22.430;2022-08-06T00:21:28;8.88;;;4.07;;
65477;SDS011;53678;39.642;22.430;2022-08-06T00:23:54;8.70;;;4.35;;
65477;SDS011;53678;39.642;22.430;2022-08-06T00:26:20;7.07;;;3.90;;
65477;SDS011;53678;39.642;22.430;2022-08-06T00:28:47;7.03;;;3.50;;
65477;SDS011;53678;39.642;22.430;2022-08-06T00:31:13;8.35;;;3.70;;
65477;SDS011;53678;39.642;22.430;2022-08-06T00:33:39;6.95;;;3.58;;
65477;SDS011;53678;39.642;22.430;2022-08-06T00:36:07;7.80;;;3.08;;
65477;SDS011;53678;39.642;22.430;2022-08-06T00:38:33;5.82;;;3.30;;
65477;SDS011;53678;39.642;22.430;2022-08-06T00:40:59;10.27;;;3.78;;
65477;SDS011;53678;39.642;22.430;2022-08-06T00:43:26;8.65;;;3.70;;
65477;SDS011;53678;39.642;22.430;2022-08-06T00:45:52;6.68;;;3.53;;
65477;SDS011;53678;39.642;22.430;2022-08-06T00:48:18;6.18;;;3.63;;
65477;SDS011;53678;39.642;22.430;2022-08-06T00:50:44;6.20;;;3.33;;
65477;SDS011;53678;39.642;22.430;2022-08-06T00:53:10;4.50;;;3.17;;
65477;SDS011;53678;39.642;22.430;2022-08-06T00:55:36;6.15;;;3.42;;
65477;SDS011;53678;39.642;22.430;2022-08-06T00:58:05;7.07;;;3.50;;
65477;SDS011;53678;39.642;22.430;2022-08-06T01:00:33;6.95;;;3.20;;
65477;SDS011;53678;39.642;22.430;2022-08-06T01:02:59;11.07;;;3.15;;
65477;SDS011;53678;39.642;22.430;2022-08-06T01:05:25;7.45;;;3.15;;
65477;SDS011;53678;39.642;22.430;2022-08-06T01:07:51;6.85;;;3.53;;
65477;SDS011;53678;39.642;22.430;2022-08-06T01:10:17;10.98;;;3.80;;
65477;SDS011;53678;39.642;22.430;2022-08-06T01:12:43;8.18;;;3.28;;
65477;SDS011;53678;39.642;22.430;2022-08-06T01:15:09;6.35;;;3.17;;
65477;SDS011;53678;39.642;22.430;2022-08-06T01:17:44;7.57;;;3.10;;
65477;SDS011;53678;39.642;22.430;2022-08-06T01:23:23;7.38;;;3.40;;
65477;SDS011;53678;39.642;22.430;2022-08-06T01:28:28;6.30;;;2.90;;
65477;SDS011;53678;39.642;22.430;2022-08-06T01:33:33;9.63;;;2.80;;
65477;SDS011;53678;39.642;22.430;2022-08-06T01:36:05;6.25;;;2.55;;
65477;SDS011;53678;39.642;22.430;2022-08-06T01:38:36;7.47;;;2.97;;
65477;SDS011;53678;39.642;22.430;2022-08-06T01:41:07;7.80;;;3.08;;
65477;SDS011;53678;39.642;22.430;2022-08-06T01:43:36;5.00;;;3.03;;
65477;SDS011;53678;39.642;22.430;2022-08-06T01:46:04;12.57;;;3.20;;
65477;SDS011;53678;39.642;22.430;2022-08-06T01:48:32;8.95;;;2.92;;
65477;SDS011;53678;39.642;22.430;2022-08-06T01:51:02;9.73;;;2.72;;
65477;SDS011;53678;39.642;22.430;2022-08-06T01:53:32;7.18;;;2.72;;
65477;SDS011;53678;39.642;22.430;2022-08-06T01:56:02;4.13;;;2.70;;
65477;SDS011;53678;39.642;22.430;2022-08-06T01:58:33;5.50;;;2.90;;
65477;SDS011;53678;39.642;22.430;2022-08-06T02:01:04;4.53;;;3.08;;
65477;SDS011;53678;39.642;22.430;2022-08-06T02:03:35;8.18;;;2.83;;
65477;SDS011;53678;39.642;22.430;2022-08-06T02:06:12;5.20;;;2.75;;
65477;SDS011;53678;39.642;22.430;2022-08-06T02:08:40;4.93;;;2.90;;
65477;SDS011;53678;39.642;22.430;2022-08-06T02:11:09;3.97;;;2.63;;
65477;SDS011;53678;39.642;22.430;2022-08-06T02:13:36;4.35;;;2.65;;
65477;SDS011;53678;39.642;22.430;2022-08-06T02:16:05;4.07;;;2.50;;
65477;SDS011;53678;39.642;22.430;2022-08-06T02:18:34;9.25;;;2.90;;
65477;SDS011;53678;39.642;22.430;2022-08-06T02:21:06;5.00;;;3.10;;
65477;SDS011;53678;39.642;22.430;2022-08-06T02:23:35;3.20;;;2.70;;
65477;SDS011;53678;39.642;22.430;2022-08-06T02:26:02;5.22;;;2.72;;
65477;SDS011;53678;39.642;22.430;2022-08-06T02:28:29;7.47;;;2.83;;
65477;SDS011;53678;39.642;22.430;2022-08-06T02:30:57;6.65;;;3.17;;
65477;SDS011;53678;39.642;22.430;2022-08-06T02:33:24;9.20;;;3.20;;
65477;SDS011;53678;39.642;22.430;2022-08-06T02:38:41;5.78;;;3.20;;
65477;SDS011;53678;39.642;22.430;2022-08-06T02:43:54;9.15;;;3.40;;
65477;SDS011;53678;39.642;22.430;2022-08-06T02:46:38;8.43;;;3.05;;
65477;SDS011;53678;39.642;22.430;2022-08-06T02:49:12;8.40;;;3.40;;
65477;SDS011;53678;39.642;22.430;2022-08-06T02:52:13;6.18;;;2.50;;
65477;SDS011;53678;39.642;22.430;2022-08-06T02:54:53;4.13;;;2.83;;
65477;SDS011;53678;39.642;22.430;2022-08-06T02:57:30;3.72;;;2.72;;
65477;SDS011;53678;39.642;22.430;2022-08-06T03:00:01;8.13;;;2.70;;
65477;SDS011;53678;39.642;22.430;2022-08-06T03:02:30;8.30;;;2.88;;
65477;SDS011;53678;39.642;22.430;2022-08-06T03:04:59;7.55;;;2.83;;
65477;SDS011;53678;39.642;22.430;2022-08-06T03:07:27;13.10;;;3.40;;
65477;SDS011;53678;39.642;22.430;2022-08-06T03:09:57;5.30;;;3.00;;
65477;SDS011;53678;39.642;22.430;2022-08-06T03:12:24;5.72;;;2.90;;
65477;SDS011;53678;39.642;22.430;2022-08-06T03:14:51;5.38;;;3.17;;
65477;SDS011;53678;39.642;22.430;2022-08-06T03:17:19;4.88;;;3.22;;
65477;SDS011;53678;39.642;22.430;2022-08-06T03:19:46;8.38;;;3.50;;
65477;SDS011;53678;39.642;22.430;2022-08-06T03:22:14;15.98;;;3.42;;
65477;SDS011;53678;39.642;22.430;2022-08-06T03:24:43;7.07;;;3.10;;
65477;SDS011;53678;39.642;22.430;2022-08-06T03:27:10;10.18;;;3.63;;
65477;SDS011;53678;39.642;22.430;2022-08-06T03:29:37;4.85;;;2.90;;
65477;SDS011;53678;39.642;22.430;2022-08-06T03:32:06;9.15;;;3.38;;
65477;SDS011;53678;39.642;22.430;2022-08-06T03:34:33;8.23;;;3.00;;
65477;SDS011;53678;39.642;22.430;2022-08-06T03:37:01;6.13;;;3.15;;
65477;SDS011;53678;39.642;22.430;2022-08-06T03:39:29;4.72;;;3.42;;
65477;SDS011;53678;39.642;22.430;2022-08-06T03:41:57;8.40;;;3.22;;
65477;SDS011;53678;39.642;22.430;2022-08-06T03:44:24;7.20;;;3.28;;
65477;SDS011;53678;39.642;22.430;2022-08-06T03:46:54;7.55;;;3.25;;
65477;SDS011;53678;39.642;22.430;2022-08-06T03:52:32;11.15;;;4.60;;
65477;SDS011;53678;39.642;22.430;2022-08-06T03:55:04;13.82;;;3.83;;
65477;SDS011;53678;39.642;22.430;2022-08-06T03:57:38;6.00;;;3.30;;
65477;SDS011;53678;39.642;22.430;2022-08-06T04:00:07;6.68;;;3.53;;
65477;SDS011;53678;39.642;22.430;2022-08-06T04:02:42;8.68;;;3.83;;
65477;SDS011;53678;39.642;22.430;2022-08-06T04:05:15;8.48;;;3.50;;
65477;SDS011;53678;39.642;22.430;2022-08-06T04:07:44;6.03;;;3.17;;
65477;SDS011;53678;39.642;22.430;2022-08-06T04:10:11;11.40;;;3.47;;
65477;SDS011;53678;39.642;22.430;2022-08-06T04:12:38;8.25;;;3.83;;
65477;SDS011;53678;39.642;22.430;2022-08-06T04:15:05;6.72;;;3.40;;
65477;SDS011;53678;39.642;22.430;2022-08-06T04:17:32;7.63;;;3.72;;
65477;SDS011;53678;39.642;22.430;2022-08-06T04:19:59;9.63;;;3.55;;
65477;SDS011;53678;39.642;22.430;2022-08-06T04:22:26;6.13;;;3.80;;
65477;SDS011;53678;39.642;22.430;2022-08-06T04:24:52;9.07;;;3.75;;
65477;SDS011;53678;39.642;22.430;2022-08-06T04:27:18;13.05;;;3.97;;
65477;SDS011;53678;39.642;22.430;2022-08-06T04:29:45;10.65;;;4.20;;
65477;SDS011;53678;39.642;22.430;2022-08-06T04:32:13;13.57;;;3.47;;
65477;SDS011;53678;39.642;22.430;2022-08-06T04:34:41;12.13;;;3.38;;
65477;SDS011;53678;39.642;22.430;2022-08-06T04:37:08;10.48;;;3.50;;
65477;SDS011;53678;39.642;22.430;2022-08-06T04:39:34;10.48;;;4.30;;
65477;SDS011;53678;39.642;22.430;2022-08-06T04:42:01;6.55;;;3.58;;
65477;SDS011;53678;39.642;22.430;2022-08-06T04:44:27;7.45;;;3.42;;
65477;SDS011;53678;39.642;22.430;2022-08-06T04:46:55;10.48;;;3.55;;
65477;SDS011;53678;39.642;22.430;2022-08-06T04:49:23;15.82;;;3.63;;
65477;SDS011;53678;39.642;22.430;2022-08-06T04:51:48;10.48;;;3.80;;
65477;SDS011;53678;39.642;22.430;2022-08-06T04:54:15;9.75;;;3.00;;
65477;SDS011;53678;39.642;22.430;2022-08-06T04:56:42;8.80;;;3.42;;
65477;SDS011;53678;39.642;22.430;2022-08-06T04:59:09;13.43;;;3.53;;
65477;SDS011;53678;39.642;22.430;2022-08-06T05:01:36;11.25;;;3.58;;
65477;SDS011;53678;39.642;22.430;2022-08-06T05:04:02;8.38;;;3.25;;
65477;SDS011;53678;39.642;22.430;2022-08-06T05:06:35;16.17;;;3.80;;
65477;SDS011;53678;39.642;22.430;2022-08-06T05:09:10;8.98;;;3.53;;
65477;SDS011;53678;39.642;22.430;2022-08-06T05:11:40;6.85;;;3.30;;
65477;SDS011;53678;39.642;22.430;2022-08-06T05:14:10;9.00;;;3.30;;
65477;SDS011;53678;39.642;22.430;2022-08-06T05:16:42;4.95;;;3.50;;
65477;SDS011;53678;39.642;22.430;2022-08-06T05:19:11;7.68;;;3.30;;
65477;SDS011;53678;39.642;22.430;2022-08-06T05:21:42;4.97;;;3.67;;
65477;SDS011;53678;39.642;22.430;2022-08-06T05:24:10;8.77;;;3.70;;
65477;SDS011;53678;39.642;22.430;2022-08-06T05:26:37;8.15;;;3.75;;
65477;SDS011;53678;39.642;22.430;2022-08-06T05:29:03;7.00;;;3.45;;
65477;SDS011;53678;39.642;22.430;2022-08-06T05:31:29;9.77;;;3.85;;
65477;SDS011;53678;39.642;22.430;2022-08-06T05:34:02;5.57;;;3.47;;
65477;SDS011;53678;39.642;22.430;2022-08-06T05:36:29;14.90;;;3.75;;
65477;SDS011;53678;39.642;22.430;2022-08-06T05:38:56;6.35;;;3.80;;
65477;SDS011;53678;39.642;22.430;2022-08-06T05:41:22;6.90;;;3.47;;
65477;SDS011;53678;39.642;22.430;2022-08-06T05:43:48;13.88;;;4.80;;
65477;SDS011;53678;39.642;22.430;2022-08-06T05:46:15;11.57;;;4.38;;
65477;SDS011;53678;39.642;22.430;2022-08-06T05:48:54;8.70;;;3.85;;
65477;SDS011;53678;39.642;22.430;2022-08-06T05:53:59;14.43;;;5.20;;
65477;SDS011;53678;39.642;22.430;2022-08-06T05:56:35;8.82;;;3.97;;
65477;SDS011;53678;39.642;22.430;2022-08-06T05:59:27;8.65;;;4.45;;
65477;SDS011;53678;39.642;22.430;2022-08-06T06:01:53;8.45;;;5.32;;
65477;SDS011;53678;39.642;22.430;2022-08-06T06:04:20;13.27;;;3.97;;
65477;SDS011;53678;39.642;22.430;2022-08-06T06:06:48;15.38;;;4.40;;
65477;SDS011;53678;39.642;22.430;2022-08-06T06:09:15;14.30;;;4.47;;
65477;SDS011;53678;39.642;22.430;2022-08-06T06:11:41;21.52;;;5.72;;
65477;SDS011;53678;39.642;22.430;2022-08-06T06:14:26;18.58;;;5.18;;
65477;SDS011;53678;39.642;22.430;2022-08-06T06:17:03;15.93;;;4.47;;
65477;SDS011;53678;39.642;22.430;2022-08-06T06:19:35;11.23;;;3.65;;
65477;SDS011;53678;39.642;22.430;2022-08-06T06:22:19;12.05;;;3.90;;
65477;SDS011;53678;39.642;22.430;2022-08-06T06:24:50;13.05;;;4.55;;
65477;SDS011;53678;39.642;22.430;2022-08-06T06:30:03;8.07;;;3.58;;
65477;SDS011;53678;39.642;22.430;2022-08-06T06:35:43;15.93;;;3.92;;
65477;SDS011;53678;39.642;22.430;2022-08-06T06:38:28;12.23;;;3.90;;
65477;SDS011;53678;39.642;22.430;2022-08-06T06:46:33;4.75;;;3.28;;
65477;SDS011;53678;39.642;22.430;2022-08-06T06:49:08;7.18;;;3.30;;
65477;SDS011;53678;39.642;22.430;2022-08-06T06:51:43;11.00;;;4.88;;
65477;SDS011;53678;39.642;22.430;2022-08-06T06:54:19;6.72;;;3.63;;
65477;SDS011;53678;39.642;22.430;2022-08-06T06:56:48;6.97;;;3.35;;
65477;SDS011;53678;39.642;22.430;2022-08-06T06:59:23;11.73;;;4.28;;
65477;SDS011;53678;39.642;22.430;2022-08-06T07:01:55;9.77;;;3.88;;
65477;SDS011;53678;39.642;22.430;2022-08-06T07:04:23;12.00;;;3.45;;
65477;SDS011;53678;39.642;22.430;2022-08-06T07:06:50;7.00;;;3.35;;
65477;SDS011;53678;39.642;22.430;2022-08-06T07:09:23;6.82;;;3.10;;
65477;SDS011;53678;39.642;22.430;2022-08-06T07:11:50;8.48;;;3.40;;
65477;SDS011;53678;39.642;22.430;2022-08-06T07:14:20;6.57;;;3.22;;
65477;SDS011;53678;39.642;22.430;2022-08-06T07:16:47;11.48;;;3.47;;
65477;SDS011;53678;39.642;22.430;2022-08-06T07:19:15;8.20;;;3.08;;
65477;SDS011;53678;39.642;22.430;2022-08-06T07:21:43;14.80;;;3.65;;
65477;SDS011;53678;39.642;22.430;2022-08-06T07:24:13;7.68;;;3.13;;
65477;SDS011;53678;39.642;22.430;2022-08-06T07:26:46;7.70;;;3.30;;
65477;SDS011;53678;39.642;22.430;2022-08-06T07:29:15;7.03;;;3.70;;
65477;SDS011;53678;39.642;22.430;2022-08-06T07:31:42;6.80;;;3.13;;
65477;SDS011;53678;39.642;22.430;2022-08-06T07:34:09;9.88;;;3.40;;
65477;SDS011;53678;39.642;22.430;2022-08-06T07:36:46;8.05;;;3.25;;
65477;SDS011;53678;39.642;22.430;2022-08-06T07:39:23;10.52;;;3.67;;
65477;SDS011;53678;39.642;22.430;2022-08-06T07:41:53;14.40;;;3.47;;
65477;SDS011;53678;39.642;22.430;2022-08-06T07:44:21;4.60;;;3.25;;
65477;SDS011;53678;39.642;22.430;2022-08-06T07:46:48;6.75;;;3.22;;
65477;SDS011;53678;39.642;22.430;2022-08-06T07:49:21;5.68;;;3.00;;
65477;SDS011;53678;39.642;22.430;2022-08-06T07:51:48;9.45;;;3.53;;
65477;SDS011;53678;39.642;22.430;2022-08-06T07:54:16;11.77;;;3.13;;
65477;SDS011;53678;39.642;22.430;2022-08-06T07:56:44;6.60;;;3.20;;
65477;SDS011;53678;39.642;22.430;2022-08-06T07:59:11;12.13;;;3.30;;
65477;SDS011;53678;39.642;22.430;2022-08-06T08:01:38;4.32;;;3.25;;
65477;SDS011;53678;39.642;22.430;2022-08-06T08:04:05;5.25;;;2.75;;
65477;SDS011;53678;39.642;22.430;2022-08-06T08:06:51;5.30;;;3.05;;
65477;SDS011;53678;39.642;22.430;2022-08-06T08:09:19;4.90;;;2.83;;
65477;SDS011;53678;39.642;22.430;2022-08-06T08:11:48;10.13;;;2.92;;
65477;SDS011;53678;39.642;22.430;2022-08-06T08:14:15;6.90;;;3.42;;
65477;SDS011;53678;39.642;22.430;2022-08-06T08:16:44;6.20;;;3.67;;
65477;SDS011;53678;39.642;22.430;2022-08-06T08:19:20;4.43;;;3.17;;
65477;SDS011;53678;39.642;22.430;2022-08-06T08:21:48;8.38;;;2.97;;
65477;SDS011;53678;39.642;22.430;2022-08-06T08:24:15;5.70;;;3.50;;
65477;SDS011;53678;39.642;22.430;2022-08-06T08:26:41;7.15;;;3.30;;
65477;SDS011;53678;39.642;22.430;2022-08-06T08:29:07;5.30;;;3.20;;
65477;SDS011;53678;39.642;22.430;2022-08-06T08:31:35;4.85;;;3.08;;
65477;SDS011;53678;39.642;22.430;2022-08-06T08:34:02;4.30;;;3.22;;
65477;SDS011;53678;39.642;22.430;2022-08-06T08:36:28;9.82;;;3.47;;
65477;SDS011;53678;39.642;22.430;2022-08-06T08:38:54;5.75;;;3.17;;
65477;SDS011;53678;39.642;22.430;2022-08-06T08:41:28;6.60;;;3.38;;
65477;SDS011;53678;39.642;22.430;2022-08-06T08:44:01;14.43;;;3.33;;
65477;SDS011;53678;39.642;22.430;2022-08-06T08:46:32;7.13;;;3.55;;
65477;SDS011;53678;39.642;22.430;2022-08-06T08:49:15;4.82;;;3.13;;
65477;SDS011;53678;39.642;22.430;2022-08-06T08:51:44;7.18;;;3.30;;
65477;SDS011;53678;39.642;22.430;2022-08-06T08:54:13;11.10;;;3.17;;
65477;SDS011;53678;39.642;22.430;2022-08-06T08:56:42;7.93;;;3.20;;
65477;SDS011;53678;39.642;22.430;2022-08-06T08:59:09;5.40;;;3.25;;
65477;SDS011;53678;39.642;22.430;2022-08-06T09:01:36;3.40;;;2.85;;
65477;SDS011;53678;39.642;22.430;2022-08-06T09:04:03;3.35;;;3.05;;
65477;SDS011;53678;39.642;22.430;2022-08-06T09:06:30;5.05;;;3.05;;
65477;SDS011;53678;39.642;22.430;2022-08-06T09:08:58;4.63;;;3.30;;
65477;SDS011;53678;39.642;22.430;2022-08-06T09:11:31;4.03;;;2.88;;
65477;SDS011;53678;39.642;22.430;2022-08-06T09:14:02;7.82;;;3.10;;
65477;SDS011;53678;39.642;22.430;2022-08-06T09:16:33;6.47;;;3.05;;
65477;SDS011;53678;39.642;22.430;2022-08-06T09:19:00;6.53;;;2.92;;
65477;SDS011;53678;39.642;22.430;2022-08-06T09:21:28;9.80;;;3.03;;
65477;SDS011;53678;39.642;22.430;2022-08-06T09:23:55;3.90;;;2.80;;
65477;SDS011;53678;39.642;22.430;2022-08-06T09:26:21;4.55;;;3.10;;
65477;SDS011;53678;39.642;22.430;2022-08-06T09:28:47;5.10;;;2.78;;
65477;SDS011;53678;39.642;22.430;2022-08-06T09:31:15;5.65;;;3.05;;
65477;SDS011;53678;39.642;22.430;2022-08-06T09:33:52;4.90;;;2.67;;
65477;SDS011;53678;39.642;22.430;2022-08-06T09:36:41;8.93;;;2.90;;
65477;SDS011;53678;39.642;22.430;2022-08-06T09:39:09;5.28;;;2.90;;
65477;SDS011;53678;39.642;22.430;2022-08-06T09:41:39;6.32;;;3.20;;
65477;SDS011;53678;39.642;22.430;2022-08-06T09:44:13;4.68;;;2.70;;
65477;SDS011;53678;39.642;22.430;2022-08-06T09:46:41;5.78;;;3.10;;
65477;SDS011;53678;39.642;22.430;2022-08-06T09:49:09;5.82;;;3.00;;
65477;SDS011;53678;39.642;22.430;2022-08-06T09:51:37;4.80;;;2.80;;
65477;SDS011;53678;39.642;22.430;2022-08-06T09:54:05;3.60;;;3.10;;
65477;SDS011;53678;39.642;22.430;2022-08-06T09:56:34;6.50;;;3.25;;
65477;SDS011;53678;39.642;22.430;2022-08-06T09:59:01;7.80;;;3.30;;
65477;SDS011;53678;39.642;22.430;2022-08-06T10:01:29;7.13;;;2.92;;
65477;SDS011;53678;39.642;22.430;2022-08-06T10:04:02;3.55;;;3.08;;
65477;SDS011;53678;39.642;22.430;2022-08-06T10:06:29;6.85;;;3.78;;
65477;SDS011;53678;39.642;22.430;2022-08-06T10:09:08;4.50;;;2.92;;
65477;SDS011;53678;39.642;22.430;2022-08-06T10:11:37;6.93;;;2.90;;
65477;SDS011;53678;39.642;22.430;2022-08-06T10:14:04;5.13;;;3.20;;
65477;SDS011;53678;39.642;22.430;2022-08-06T10:16:31;4.57;;;2.50;;
65477;SDS011;53678;39.642;22.430;2022-08-06T10:18:58;7.60;;;3.25;;
65477;SDS011;53678;39.642;22.430;2022-08-06T10:21:25;4.97;;;2.83;;
65477;SDS011;53678;39.642;22.430;2022-08-06T10:23:59;5.80;;;3.22;;
65477;SDS011;53678;39.642;22.430;2022-08-06T10:26:28;4.38;;;3.22;;
65477;SDS011;53678;39.642;22.430;2022-08-06T10:29:00;4.43;;;2.58;;
65477;SDS011;53678;39.642;22.430;2022-08-06T10:31:27;4.40;;;2.72;;
65477;SDS011;53678;39.642;22.430;2022-08-06T10:36:28;6.63;;;3.10;;
65477;SDS011;53678;39.642;22.430;2022-08-06T10:38:56;6.47;;;3.15;;
65477;SDS011;53678;39.642;22.430;2022-08-06T10:41:23;4.30;;;2.88;;
65477;SDS011;53678;39.642;22.430;2022-08-06T10:43:50;6.85;;;3.10;;
65477;SDS011;53678;39.642;22.430;2022-08-06T10:46:20;3.15;;;2.83;;
65477;SDS011;53678;39.642;22.430;2022-08-06T10:48:47;5.22;;;2.80;;
65477;SDS011;53678;39.642;22.430;2022-08-06T10:51:14;6.78;;;3.13;;
65477;SDS011;53678;39.642;22.430;2022-08-06T10:53:44;4.75;;;2.75;;
65477;SDS011;53678;39.642;22.430;2022-08-06T10:56:13;8.40;;;2.78;;
65477;SDS011;53678;39.642;22.430;2022-08-06T10:58:41;4.45;;;2.85;;
65477;SDS011;53678;39.642;22.430;2022-08-06T11:01:10;3.63;;;2.65;;
65477;SDS011;53678;39.642;22.430;2022-08-06T11:14:29;4.18;;;2.72;;
65477;SDS011;53678;39.642;22.430;2022-08-06T11:16:59;4.55;;;2.70;;
65477;SDS011;53678;39.642;22.430;2022-08-06T11:19:41;4.47;;;2.75;;
65477;SDS011;53678;39.642;22.430;2022-08-06T11:25:01;6.28;;;3.13;;
65477;SDS011;53678;39.642;22.430;2022-08-06T11:30:18;6.40;;;3.08;;
65477;SDS011;53678;39.642;22.430;2022-08-06T11:32:50;2.95;;;2.38;;
65477;SDS011;53678;39.642;22.430;2022-08-06T11:38:08;5.22;;;2.50;;
65477;SDS011;53678;39.642;22.430;2022-08-06T12:02:16;4.72;;;2.40;;
65477;SDS011;53678;39.642;22.430;2022-08-06T12:07:39;4.03;;;2.37;;
65477;SDS011;53678;39.642;22.430;2022-08-06T12:10:15;3.22;;;2.30;;
65477;SDS011;53678;39.642;22.430;2022-08-06T12:23:03;3.15;;;2.53;;
65477;SDS011;53678;39.642;22.430;2022-08-06T12:25:31;3.15;;;2.53;;
65477;SDS011;53678;39.642;22.430;2022-08-06T12:28:01;3.00;;;2.33;;
65477;SDS011;53678;39.642;22.430;2022-08-06T12:33:07;8.68;;;3.03;;
65477;SDS011;53678;39.642;22.430;2022-08-06T12:35:34;3.05;;;2.60;;
65477;SDS011;53678;39.642;22.430;2022-08-06T12:38:20;5.38;;;2.60;;
65477;SDS011;53678;39.642;22.430;2022-08-06T12:40:57;4.45;;;3.08;;
65477;SDS011;53678;39.642;22.430;2022-08-06T12:43:25;3.08;;;2.20;;
65477;SDS011;53678;39.642;22.430;2022-08-06T12:45:56;3.13;;;2.50;;
65477;SDS011;53678;39.642;22.430;2022-08-06T12:48:26;2.58;;;2.17;;
65477;SDS011;53678;39.642;22.430;2022-08-06T12:51:03;3.85;;;2.50;;
65477;SDS011;53678;39.642;22.430;2022-08-06T12:53:38;5.10;;;2.83;;
65477;SDS011;53678;39.642;22.430;2022-08-06T12:56:05;5.45;;;4.10;;
65477;SDS011;53678;39.642;22.430;2022-08-06T12:58:35;4.38;;;2.58;;
65477;SDS011;53678;39.642;22.430;2022-08-06T13:01:03;6.53;;;3.55;;
65477;SDS011;53678;39.642;22.430;2022-08-06T13:03:31;3.28;;;2.72;;
65477;SDS011;53678;39.642;22.430;2022-08-06T13:06:00;3.03;;;2.47;;
65477;SDS011;53678;39.642;22.430;2022-08-06T13:08:29;5.55;;;2.83;;
65477;SDS011;53678;39.642;22.430;2022-08-06T13:10:56;5.85;;;3.13;;
65477;SDS011;53678;39.642;22.430;2022-08-06T13:16:11;4.95;;;2.30;;
65477;SDS011;53678;39.642;22.430;2022-08-06T13:18:38;3.60;;;2.15;;
65477;SDS011;53678;39.642;22.430;2022-08-06T13:21:23;4.45;;;2.40;;
65477;SDS011;53678;39.642;22.430;2022-08-06T13:23:50;4.78;;;2.53;;
65477;SDS011;53678;39.642;22.430;2022-08-06T13:26:21;4.25;;;1.90;;
65477;SDS011;53678;39.642;22.430;2022-08-06T13:31:41;3.33;;;2.33;;
65477;SDS011;53678;39.642;22.430;2022-08-06T13:34:09;5.35;;;2.55;;
65477;SDS011;53678;39.642;22.430;2022-08-06T13:36:38;6.13;;;2.30;;
65477;SDS011;53678;39.642;22.430;2022-08-06T13:39:18;4.88;;;2.28;;
65477;SDS011;53678;39.642;22.430;2022-08-06T13:41:45;4.47;;;2.00;;
65477;SDS011;53678;39.642;22.430;2022-08-06T13:46:56;4.63;;;2.42;;
65477;SDS011;53678;39.642;22.430;2022-08-06T13:49:23;3.60;;;2.50;;
65477;SDS011;53678;39.642;22.430;2022-08-06T13:51:49;3.53;;;2.30;;
65477;SDS011;53678;39.642;22.430;2022-08-06T13:54:15;3.22;;;2.30;;
65477;SDS011;53678;39.642;22.430;2022-08-06T13:56:41;4.18;;;2.40;;
65477;SDS011;53678;39.642;22.430;2022-08-06T13:59:07;4.15;;;2.40;;
65477;SDS011;53678;39.642;22.430;2022-08-06T14:01:33;3.38;;;2.58;;
65477;SDS011;53678;39.642;22.430;2022-08-06T14:03:59;4.05;;;2.80;;
65477;SDS011;53678;39.642;22.430;2022-08-06T14:06:25;2.75;;;2.17;;
65477;SDS011;53678;39.642;22.430;2022-08-06T14:08:51;3.53;;;2.30;;
65477;SDS011;53678;39.642;22.430;2022-08-06T14:11:17;2.95;;;2.65;;
65477;SDS011;53678;39.642;22.430;2022-08-06T14:13:43;4.70;;;2.30;;
65477;SDS011;53678;39.642;22.430;2022-08-06T14:16:08;3.70;;;2.50;;
65477;SDS011;53678;39.642;22.430;2022-08-06T14:18:34;4.00;;;2.65;;
65477;SDS011;53678;39.642;22.430;2022-08-06T14:21:00;4.32;;;2.50;;
65477;SDS011;53678;39.642;22.430;2022-08-06T14:23:26;6.43;;;3.10;;
65477;SDS011;53678;39.642;22.430;2022-08-06T14:25:52;2.80;;;2.35;;
65477;SDS011;53678;39.642;22.430;2022-08-06T14:28:18;3.17;;;2.45;;
65477;SDS011;53678;39.642;22.430;2022-08-06T14:30:45;5.10;;;2.38;;
65477;SDS011;53678;39.642;22.430;2022-08-06T14:33:11;4.68;;;2.40;;
65477;SDS011;53678;39.642;22.430;2022-08-06T14:35:38;4.28;;;2.65;;
65477;SDS011;53678;39.642;22.430;2022-08-06T14:38:05;4.03;;;2.80;;
65477;SDS011;53678;39.642;22.430;2022-08-06T14:40:32;6.10;;;2.40;;
65477;SDS011;53678;39.642;22.430;2022-08-06T14:43:16;3.95;;;2.40;;
65477;SDS011;53678;39.642;22.430;2022-08-06T14:46:01;4.50;;;3.10;;
65477;SDS011;53678;39.642;22.430;2022-08-06T14:48:27;4.57;;;2.40;;
65477;SDS011;53678;39.642;22.430;2022-08-06T14:50:53;6.18;;;2.70;;
65477;SDS011;53678;39.642;22.430;2022-08-06T14:53:19;3.75;;;2.38;;
65477;SDS011;53678;39.642;22.430;2022-08-06T14:55:45;4.63;;;2.90;;
65477;SDS011;53678;39.642;22.430;2022-08-06T14:58:11;5.63;;;2.95;;
65477;SDS011;53678;39.642;22.430;2022-08-06T15:00:37;5.28;;;2.72;;
65477;SDS011;53678;39.642;22.430;2022-08-06T15:03:03;4.90;;;2.85;;
65477;SDS011;53678;39.642;22.430;2022-08-06T15:05:30;5.93;;;3.70;;
65477;SDS011;53678;39.642;22.430;2022-08-06T15:08:00;4.65;;;2.80;;
65477;SDS011;53678;39.642;22.430;2022-08-06T15:10:26;4.70;;;2.70;;
65477;SDS011;53678;39.642;22.430;2022-08-06T15:12:52;3.70;;;2.47;;
65477;SDS011;53678;39.642;22.430;2022-08-06T15:15:18;3.10;;;2.50;;
65477;SDS011;53678;39.642;22.430;2022-08-06T15:17:44;3.28;;;2.75;;
65477;SDS011;53678;39.642;22.430;2022-08-06T15:20:10;3.80;;;2.45;;
65477;SDS011;53678;39.642;22.430;2022-08-06T15:22:36;2.80;;;2.25;;
65477;SDS011;53678;39.642;22.430;2022-08-06T15:25:02;3.15;;;2.50;;
65477;SDS011;53678;39.642;22.430;2022-08-06T15:27:29;3.35;;;2.45;;
65477;SDS011;53678;39.642;22.430;2022-08-06T15:29:54;3.53;;;2.42;;
65477;SDS011;53678;39.642;22.430;2022-08-06T15:32:22;5.88;;;2.50;;
65477;SDS011;53678;39.642;22.430;2022-08-06T15:34:48;3.60;;;2.80;;
65477;SDS011;53678;39.642;22.430;2022-08-06T15:37:14;3.50;;;2.53;;
65477;SDS011;53678;39.642;22.430;2022-08-06T15:39:40;5.55;;;2.50;;
65477;SDS011;53678;39.642;22.430;2022-08-06T15:42:06;4.53;;;2.63;;
65477;SDS011;53678;39.642;22.430;2022-08-06T15:44:32;2.83;;;2.50;;
65477;SDS011;53678;39.642;22.430;2022-08-06T15:46:58;3.42;;;2.60;;
65477;SDS011;53678;39.642;22.430;2022-08-06T15:49:25;4.85;;;2.63;;
65477;SDS011;53678;39.642;22.430;2022-08-06T15:51:51;3.38;;;2.55;;
65477;SDS011;53678;39.642;22.430;2022-08-06T15:54:18;3.17;;;2.35;;
65477;SDS011;53678;39.642;22.430;2022-08-06T15:56:44;4.60;;;2.65;;
65477;SDS011;53678;39.642;22.430;2022-08-06T15:59:10;4.00;;;2.40;;
65477;SDS011;53678;39.642;22.430;2022-08-06T16:01:36;3.58;;;2.15;;
65477;SDS011;53678;39.642;22.430;2022-08-06T16:04:02;3.65;;;2.50;;
65477;SDS011;53678;39.642;22.430;2022-08-06T16:06:28;4.68;;;2.95;;
65477;SDS011;53678;39.642;22.430;2022-08-06T16:08:54;3.95;;;2.80;;
65477;SDS011;53678;39.642;22.430;2022-08-06T16:11:20;3.53;;;2.70;;
65477;SDS011;53678;39.642;22.430;2022-08-06T16:13:46;5.13;;;2.90;;
65477;SDS011;53678;39.642;22.430;2022-08-06T16:16:12;5.85;;;2.47;;
65477;SDS011;53678;39.642;22.430;2022-08-06T16:18:39;6.18;;;2.50;;
65477;SDS011;53678;39.642;22.430;2022-08-06T16:21:05;4.80;;;2.92;;
65477;SDS011;53678;39.642;22.430;2022-08-06T16:23:32;5.30;;;2.50;;